Time;durP1;ratioP1;P1;durP2;ratioP2;P2;SDS_P1;SDS_P2;PMS_P1;PMS_P2;Temp;Humidity;BMP_temperature;BMP_pressure;BME280_temperature;BME280_humidity;BME280_pressure;Samples;Min_cycle;Max_cycle;Signal;HPM_P1;HPM_P2
2023/09/20 00:00:07;;;;;;;3.53;1.48;;;;;;;;;;4982935;28;20214;-76
2023/09/20 00:02:33;;;;;;;2.85;1.30;;;;;;;;;;4980308;28;20039;-75
2023/09/20 00:05:00;;;;;;;1.75;1.20;;;;;;;;;;4983349;28;20026;-75
2023/09/20 00:07:26;;;;;;;3.90;1.50;;;;;;;;;;4982664;28;20069;-76
2023/09/20 00:09:52;;;;;;;2.58;1.40;;;;;;;;;;4977815;28;20231;-75
2023/09/20 00:12:18;;;;;;;4.28;1.50;;;;;;;;;;4964992;28;20315;-76
2023/09/20 00:14:43;;;;;;;3.67;1.45;;;;;;;;;;4968859;28;20019;-76
2023/09/20 00:17:08;;;;;;;3.80;1.40;;;;;;;;;;4966484;28;20034;-76
2023/09/20 00:19:38;;;;;;;4.93;1.50;;;;;;;;;;4968677;28;20137;-75
2023/09/20 00:22:04;;;;;;;2.55;1.30;;;;;;;;;;4964010;28;20223;-75
2023/09/20 00:24:30;;;;;;;5.05;1.30;;;;;;;;;;4963215;28;20023;-76
2023/09/20 00:26:55;;;;;;;4.20;1.67;;;;;;;;;;4967753;28;20051;-76
2023/09/20 00:29:24;;;;;;;3.88;1.35;;;;;;;;;;4980221;28;20034;-76
2023/09/20 00:31:49;;;;;;;3.13;1.30;;;;;;;;;;4982704;28;20204;-76
2023/09/20 00:34:17;;;;;;;3.40;1.60;;;;;;;;;;4979791;28;20073;-76
2023/09/20 00:36:44;;;;;;;3.75;1.60;;;;;;;;;;4982543;28;20030;-76
2023/09/20 00:39:10;;;;;;;3.20;1.60;;;;;;;;;;4982505;28;20269;-76
2023/09/20 00:41:36;;;;;;;3.72;1.40;;;;;;;;;;4982092;28;20050;-75
2023/09/20 00:44:01;;;;;;;3.05;1.40;;;;;;;;;;4980608;28;20335;-76
2023/09/20 00:46:26;;;;;;;4.97;1.40;;;;;;;;;;4980606;28;20116;-76
2023/09/20 00:48:53;;;;;;;5.90;1.30;;;;;;;;;;4978447;28;20330;-77
2023/09/20 00:51:21;;;;;;;5.05;1.40;;;;;;;;;;4973705;28;20102;-76
2023/09/20 00:53:48;;;;;;;3.58;1.33;;;;;;;;;;4967491;28;20062;-75
2023/09/20 00:56:14;;;;;;;3.13;1.50;;;;;;;;;;4965395;28;20023;-76
2023/09/20 00:58:43;;;;;;;2.65;1.30;;;;;;;;;;4967261;28;20054;-75
2023/09/20 01:01:09;;;;;;;5.18;1.48;;;;;;;;;;4964914;28;20491;-76
2023/09/20 01:03:34;;;;;;;3.35;1.40;;;;;;;;;;4967270;28;20046;-75
2023/09/20 01:06:04;;;;;;;3.15;1.50;;;;;;;;;;4962927;28;20031;-76
2023/09/20 01:08:32;;;;;;;5.63;1.67;;;;;;;;;;4969460;28;20450;-75
2023/09/20 01:10:59;;;;;;;4.32;1.70;;;;;;;;;;4965198;28;20243;-76
2023/09/20 01:13:24;;;;;;;3.08;1.33;;;;;;;;;;4964863;28;20031;-75
2023/09/20 01:15:50;;;;;;;3.22;1.50;;;;;;;;;;4969774;28;20038;-75
2023/09/20 01:18:15;;;;;;;3.25;1.40;;;;;;;;;;4966412;28;20069;-75
2023/09/20 01:20:40;;;;;;;3.67;1.50;;;;;;;;;;4966851;28;20027;-75
2023/09/20 01:23:06;;;;;;;2.90;1.58;;;;;;;;;;4964093;28;20076;-76
2023/09/20 01:25:38;;;;;;;4.38;1.40;;;;;;;;;;4968274;28;20026;-75
2023/09/20 01:28:05;;;;;;;2.83;1.42;;;;;;;;;;4969140;28;20031;-75
2023/09/20 01:30:32;;;;;;;4.28;1.50;;;;;;;;;;4971739;28;20033;-76
2023/09/20 01:33:00;;;;;;;3.95;1.30;;;;;;;;;;4967020;28;20090;-75
2023/09/20 01:35:27;;;;;;;2.97;1.40;;;;;;;;;;4966188;28;20211;-76
2023/09/20 01:37:53;;;;;;;4.57;1.50;;;;;;;;;;4961703;28;20030;-76
2023/09/20 01:40:19;;;;;;;4.28;1.80;;;;;;;;;;4963343;28;20018;-75
2023/09/20 01:42:48;;;;;;;4.70;1.40;;;;;;;;;;4963998;28;20074;-75
2023/09/20 01:45:16;;;;;;;6.10;1.50;;;;;;;;;;4971075;28;20383;-77
2023/09/20 01:47:55;;;;;;;2.65;1.35;;;;;;;;;;4967650;28;20034;-76
2023/09/20 01:50:25;;;;;;;3.47;1.40;;;;;;;;;;4961868;28;20092;-76
2023/09/20 01:52:55;;;;;;;3.33;1.40;;;;;;;;;;4967348;28;20063;-76
2023/09/20 01:55:22;;;;;;;5.40;1.40;;;;;;;;;;4966013;28;20259;-76
2023/09/20 01:57:48;;;;;;;3.55;1.45;;;;;;;;;;4972453;28;20065;-75
2023/09/20 02:00:25;;;;;;;4.07;1.50;;;;;;;;;;4967405;28;20022;-76
2023/09/20 02:03:00;;;;;;;5.40;1.40;;;;;;;;;;4966821;28;20062;-76
2023/09/20 02:05:26;;;;;;;2.97;1.40;;;;;;;;;;4965882;28;20035;-76
2023/09/20 02:07:54;;;;;;;2.22;1.20;;;;;;;;;;4964692;28;20094;-77
2023/09/20 02:10:21;;;;;;;3.80;1.48;;;;;;;;;;4965903;28;20070;-78
2023/09/20 02:12:51;;;;;;;4.07;1.48;;;;;;;;;;4963596;28;20042;-78
2023/09/20 02:15:18;;;;;;;3.40;1.42;;;;;;;;;;4965412;28;20070;-76
2023/09/20 02:17:45;;;;;;;4.15;1.67;;;;;;;;;;4965106;28;20026;-77
2023/09/20 02:20:12;;;;;;;3.60;1.50;;;;;;;;;;4974157;28;20629;-76
2023/09/20 02:22:39;;;;;;;3.17;1.40;;;;;;;;;;4969906;28;20034;-77
2023/09/20 02:25:11;;;;;;;3.42;1.30;;;;;;;;;;4971930;28;20173;-78
2023/09/20 02:27:41;;;;;;;4.05;1.65;;;;;;;;;;4965353;28;20026;-78
2023/09/20 02:30:24;;;;;;;4.70;1.40;;;;;;;;;;4967465;28;20035;-78
2023/09/20 02:32:53;;;;;;;4.45;1.50;;;;;;;;;;4970510;28;20207;-78
2023/09/20 02:35:20;;;;;;;4.40;1.88;;;;;;;;;;4969838;28;20051;-78
2023/09/20 02:37:46;;;;;;;4.93;1.50;;;;;;;;;;4971164;28;20094;-78
2023/09/20 02:40:15;;;;;;;4.38;1.45;;;;;;;;;;4967226;28;20030;-77
2023/09/20 02:42:44;;;;;;;2.63;1.48;;;;;;;;;;4971983;28;20082;-77
2023/09/20 02:45:12;;;;;;;4.72;1.45;;;;;;;;;;4968081;28;20023;-77
2023/09/20 02:47:39;;;;;;;4.20;1.50;;;;;;;;;;4968520;28;20019;-77
2023/09/20 02:50:07;;;;;;;3.40;1.42;;;;;;;;;;4967116;28;20310;-77
2023/09/20 02:52:34;;;;;;;5.22;1.45;;;;;;;;;;4967668;28;20095;-77
2023/09/20 02:55:12;;;;;;;3.20;1.58;;;;;;;;;;4966468;28;20046;-77
2023/09/20 02:57:37;;;;;;;3.45;1.60;;;;;;;;;;4969144;28;20042;-76
2023/09/20 03:00:15;;;;;;;5.97;1.40;;;;;;;;;;4968690;28;20117;-78
2023/09/20 03:02:44;;;;;;;2.40;1.30;;;;;;;;;;4964639;28;20027;-76
2023/09/20 03:05:11;;;;;;;3.10;1.50;;;;;;;;;;4975723;28;20034;-76
2023/09/20 03:07:37;;;;;;;5.03;1.73;;;;;;;;;;4968909;28;20263;-76
2023/09/20 03:10:05;;;;;;;4.70;1.50;;;;;;;;;;4976921;28;20399;-78
2023/09/20 03:12:31;;;;;;;2.53;1.48;;;;;;;;;;4982532;28;20034;-77
2023/09/20 03:14:59;;;;;;;4.60;1.50;;;;;;;;;;4981986;28;20022;-78
2023/09/20 03:17:24;;;;;;;5.38;1.50;;;;;;;;;;4979030;28;20319;-78
2023/09/20 03:19:53;;;;;;;4.60;1.40;;;;;;;;;;4983577;28;20065;-78
2023/09/20 03:22:19;;;;;;;3.13;1.50;;;;;;;;;;4973863;28;20085;-78
2023/09/20 03:24:47;;;;;;;4.93;1.50;;;;;;;;;;4985256;28;20038;-77
2023/09/20 03:27:15;;;;;;;4.55;1.55;;;;;;;;;;4980240;28;20026;-77
2023/09/20 03:29:42;;;;;;;4.78;1.60;;;;;;;;;;4984277;28;20315;-77
2023/09/20 03:32:08;;;;;;;3.92;2.00;;;;;;;;;;4979916;28;20034;-78
2023/09/20 03:34:33;;;;;;;4.55;1.70;;;;;;;;;;4980684;28;20031;-77
2023/09/20 03:36:59;;;;;;;3.65;1.60;;;;;;;;;;4981437;28;20042;-76
2023/09/20 03:39:24;;;;;;;3.60;1.55;;;;;;;;;;4981335;28;20107;-76
2023/09/20 03:41:51;;;;;;;6.90;1.65;;;;;;;;;;4981499;28;20023;-76
2023/09/20 03:44:17;;;;;;;7.60;1.88;;;;;;;;;;4981182;28;20098;-76
2023/09/20 03:46:42;;;;;;;4.05;1.50;;;;;;;;;;4979067;28;20031;-76
2023/09/20 03:49:08;;;;;;;4.22;1.67;;;;;;;;;;4981111;28;20019;-76
2023/09/20 03:51:33;;;;;;;4.57;1.50;;;;;;;;;;4979299;28;20240;-76
2023/09/20 03:53:58;;;;;;;5.45;1.60;;;;;;;;;;4974684;28;20027;-75
2023/09/20 03:56:24;;;;;;;4.55;1.60;;;;;;;;;;4976581;28;20021;-76
2023/09/20 03:58:49;;;;;;;5.53;1.80;;;;;;;;;;4976905;28;20115;-75
2023/09/20 04:01:15;;;;;;;7.07;1.80;;;;;;;;;;4977208;28;20035;-76
2023/09/20 04:03:42;;;;;;;4.50;1.80;;;;;;;;;;4980043;28;20066;-78
2023/09/20 04:06:07;;;;;;;6.00;1.60;;;;;;;;;;4979797;28;20105;-77
2023/09/20 04:08:32;;;;;;;5.97;1.63;;;;;;;;;;4980888;28;20034;-76
2023/09/20 04:10:58;;;;;;;4.70;1.73;;;;;;;;;;4979806;28;20058;-77
2023/09/20 04:13:24;;;;;;;4.97;1.80;;;;;;;;;;4981336;28;20291;-78
2023/09/20 04:15:49;;;;;;;5.57;1.63;;;;;;;;;;4981286;28;20041;-77
2023/09/20 04:18:15;;;;;;;4.32;1.88;;;;;;;;;;4981121;28;20033;-78
2023/09/20 04:20:45;;;;;;;7.85;1.92;;;;;;;;;;4980929;28;20022;-77
2023/09/20 04:23:10;;;;;;;4.57;2.00;;;;;;;;;;4978267;28;20130;-76
2023/09/20 04:25:36;;;;;;;5.20;1.80;;;;;;;;;;4980539;28;20042;-77
2023/09/20 04:28:01;;;;;;;7.53;1.80;;;;;;;;;;4978216;28;20026;-77
2023/09/20 04:30:28;;;;;;;4.65;1.60;;;;;;;;;;4974890;28;20114;-77
2023/09/20 04:32:55;;;;;;;4.32;1.73;;;;;;;;;;4978121;28;20272;-78
2023/09/20 04:35:20;;;;;;;3.75;1.65;;;;;;;;;;4978953;28;20074;-77
2023/09/20 04:37:46;;;;;;;4.65;1.60;;;;;;;;;;4980465;28;20022;-76
2023/09/20 04:40:12;;;;;;;6.18;1.70;;;;;;;;;;4976909;28;20323;-76
2023/09/20 04:42:38;;;;;;;6.57;2.13;;;;;;;;;;4979255;28;20329;-79
2023/09/20 04:45:07;;;;;;;7.13;1.92;;;;;;;;;;4977530;28;20023;-77
2023/09/20 04:47:35;;;;;;;8.07;1.90;;;;;;;;;;4980435;28;20026;-77
2023/09/20 04:50:01;;;;;;;6.40;1.70;;;;;;;;;;4979165;28;20034;-77
2023/09/20 04:52:27;;;;;;;5.18;1.88;;;;;;;;;;4980748;28;20231;-78
2023/09/20 04:54:54;;;;;;;6.32;1.80;;;;;;;;;;4979449;28;20023;-78
2023/09/20 04:57:20;;;;;;;6.88;1.85;;;;;;;;;;4978525;28;20427;-77
2023/09/20 04:59:45;;;;;;;3.78;1.77;;;;;;;;;;4976807;28;20035;-77
2023/09/20 05:02:13;;;;;;;6.15;1.90;;;;;;;;;;4978663;28;20030;-78
2023/09/20 05:04:38;;;;;;;5.40;1.90;;;;;;;;;;4976105;28;20022;-78
2023/09/20 05:07:07;;;;;;;4.65;1.98;;;;;;;;;;4979601;28;20097;-77
2023/09/20 05:09:36;;;;;;;11.02;2.50;;;;;;;;;;4977280;28;20038;-77
2023/09/20 05:12:03;;;;;;;4.60;1.92;;;;;;;;;;4978241;28;20389;-78
2023/09/20 05:14:29;;;;;;;7.57;2.08;;;;;;;;;;4978880;28;20037;-77
2023/09/20 05:16:54;;;;;;;5.82;2.05;;;;;;;;;;4978118;28;20034;-78
2023/09/20 05:19:19;;;;;;;6.15;2.00;;;;;;;;;;4978846;28;20098;-76
2023/09/20 05:21:45;;;;;;;4.88;2.15;;;;;;;;;;4979871;28;20031;-77
2023/09/20 05:24:10;;;;;;;6.88;2.28;;;;;;;;;;4978286;28;20034;-76
2023/09/20 05:26:36;;;;;;;7.22;2.53;;;;;;;;;;4979943;28;20034;-76
2023/09/20 05:29:03;;;;;;;5.25;2.30;;;;;;;;;;4973730;28;20081;-76
2023/09/20 05:31:28;;;;;;;4.88;2.00;;;;;;;;;;4974725;28;20034;-77
2023/09/20 05:33:55;;;;;;;5.18;2.00;;;;;;;;;;4975741;28;20078;-79
2023/09/20 05:36:21;;;;;;;6.40;2.25;;;;;;;;;;4975679;28;20030;-75
2023/09/20 05:38:48;;;;;;;8.43;2.60;;;;;;;;;;4976140;28;20023;-81
2023/09/20 05:41:15;;;;;;;6.20;2.10;;;;;;;;;;4970256;28;20030;-78
2023/09/20 05:43:42;;;;;;;4.50;2.10;;;;;;;;;;4972185;28;20109;-77
2023/09/20 05:46:08;;;;;;;6.25;2.10;;;;;;;;;;4975085;28;20037;-79
2023/09/20 05:48:34;;;;;;;4.40;1.90;;;;;;;;;;4980066;28;20033;-78
2023/09/20 05:51:00;;;;;;;4.72;2.30;;;;;;;;;;4975014;28;20223;-75
2023/09/20 05:53:26;;;;;;;9.68;2.30;;;;;;;;;;4979210;28;20038;-74
2023/09/20 05:55:51;;;;;;;7.75;2.15;;;;;;;;;;4980568;28;20046;-75
2023/09/20 05:58:17;;;;;;;5.55;2.38;;;;;;;;;;4976444;28;20019;-77
2023/09/20 06:00:42;;;;;;;4.22;2.08;;;;;;;;;;4972937;28;20551;-76
2023/09/20 06:03:11;;;;;;;6.18;2.03;;;;;;;;;;4974506;28;20125;-76
2023/09/20 06:05:37;;;;;;;5.97;2.17;;;;;;;;;;4974659;28;20259;-77
2023/09/20 06:08:04;;;;;;;6.10;2.22;;;;;;;;;;4979571;28;20362;-77
2023/09/20 06:10:29;;;;;;;5.50;2.30;;;;;;;;;;4979698;28;20030;-78
2023/09/20 06:12:54;;;;;;;5.50;2.00;;;;;;;;;;4979586;28;20041;-76
2023/09/20 06:15:20;;;;;;;6.82;2.10;;;;;;;;;;4977494;28;20069;-78
2023/09/20 06:17:47;;;;;;;9.70;2.22;;;;;;;;;;4978744;28;20035;-77
2023/09/20 06:20:19;;;;;;;5.13;1.95;;;;;;;;;;4977648;28;20347;-78
2023/09/20 06:22:46;;;;;;;7.20;2.25;;;;;;;;;;4973972;28;20030;-76
2023/09/20 06:25:12;;;;;;;8.65;2.20;;;;;;;;;;4969682;28;20661;-76
2023/09/20 06:27:39;;;;;;;7.35;2.67;;;;;;;;;;4968726;28;20339;-77
2023/09/20 06:30:12;;;;;;;4.60;2.28;;;;;;;;;;4972413;28;20037;-76
2023/09/20 06:32:38;;;;;;;6.05;2.30;;;;;;;;;;4978549;28;20034;-76
2023/09/20 06:35:05;;;;;;;7.65;2.03;;;;;;;;;;4980108;28;20019;-77
2023/09/20 06:37:30;;;;;;;4.38;1.80;;;;;;;;;;4979064;28;20030;-77
2023/09/20 06:39:57;;;;;;;6.97;1.92;;;;;;;;;;4970729;28;20046;-77
2023/09/20 06:42:25;;;;;;;7.13;2.10;;;;;;;;;;4980032;28;20235;-77
2023/09/20 06:44:52;;;;;;;7.18;2.25;;;;;;;;;;4977519;28;20342;-78
2023/09/20 06:47:18;;;;;;;6.60;2.00;;;;;;;;;;4978916;28;20034;-77
2023/09/20 06:49:44;;;;;;;10.40;2.17;;;;;;;;;;4976809;28;20322;-76
2023/09/20 06:52:09;;;;;;;6.78;2.38;;;;;;;;;;4978457;28;20345;-75
2023/09/20 06:54:37;;;;;;;6.13;2.28;;;;;;;;;;4976206;28;20038;-75
2023/09/20 06:57:03;;;;;;;6.70;2.15;;;;;;;;;;4978104;28;20034;-75
2023/09/20 06:59:37;;;;;;;7.53;2.20;;;;;;;;;;4973607;28;20031;-76
2023/09/20 07:02:03;;;;;;;5.82;1.98;;;;;;;;;;4971820;28;20373;-76
2023/09/20 07:04:31;;;;;;;7.63;2.15;;;;;;;;;;4974635;28;20038;-76
2023/09/20 07:07:00;;;;;;;6.82;1.88;;;;;;;;;;4982962;28;20031;-75
2023/09/20 07:09:26;;;;;;;7.18;2.05;;;;;;;;;;4982079;28;20038;-76
2023/09/20 07:11:51;;;;;;;7.43;2.00;;;;;;;;;;4980196;28;20038;-77
2023/09/20 07:14:20;;;;;;;6.35;2.17;;;;;;;;;;4982304;28;20098;-77
2023/09/20 07:16:50;;;;;;;7.45;2.00;;;;;;;;;;4980157;28;20030;-77
2023/09/20 07:19:18;;;;;;;8.15;2.17;;;;;;;;;;4981426;28;20031;-76
2023/09/20 07:21:44;;;;;;;5.88;2.17;;;;;;;;;;4982202;28;20248;-76
2023/09/20 07:24:12;;;;;;;7.82;2.03;;;;;;;;;;4982567;28;20073;-76
2023/09/20 07:26:44;;;;;;;8.88;2.10;;;;;;;;;;4981869;28;20495;-76
2023/09/20 07:29:14;;;;;;;7.95;2.03;;;;;;;;;;4977031;28;20049;-77
2023/09/20 07:31:40;;;;;;;7.63;1.90;;;;;;;;;;4980022;28;20034;-77
2023/09/20 07:34:06;;;;;;;7.35;2.28;;;;;;;;;;4982473;28;20093;-76
2023/09/20 07:36:35;;;;;;;6.15;1.90;;;;;;;;;;4981534;28;20146;-76
2023/09/20 07:39:04;;;;;;;5.90;2.10;;;;;;;;;;4981475;28;20050;-76
2023/09/20 07:41:30;;;;;;;6.47;2.03;;;;;;;;;;4980730;28;20030;-76
2023/09/20 07:43:55;;;;;;;6.13;1.90;;;;;;;;;;4979762;28;20047;-77
2023/09/20 07:46:23;;;;;;;5.10;1.67;;;;;;;;;;4980522;28;20023;-78
2023/09/20 07:48:50;;;;;;;5.47;1.85;;;;;;;;;;4982015;28;20042;-76
2023/09/20 07:51:23;;;;;;;5.45;1.70;;;;;;;;;;4981328;28;20030;-76
2023/09/20 07:53:53;;;;;;;5.75;1.65;;;;;;;;;;4981546;28;20109;-77
2023/09/20 07:56:20;;;;;;;7.18;3.03;;;;;;;;;;4979059;28;20031;-77
2023/09/20 07:58:46;;;;;;;6.10;1.65;;;;;;;;;;4971872;28;20133;-77
2023/09/20 08:01:21;;;;;;;7.30;1.80;;;;;;;;;;4978770;28;20451;-78
2023/09/20 08:03:58;;;;;;;6.78;1.95;;;;;;;;;;4981635;28;20448;-75
2023/09/20 08:06:28;;;;;;;4.72;1.80;;;;;;;;;;4968262;28;20042;-75
2023/09/20 08:08:55;;;;;;;6.47;2.08;;;;;;;;;;4982067;28;20022;-76
2023/09/20 08:11:21;;;;;;;4.30;2.03;;;;;;;;;;4979162;28;20102;-77
2023/09/20 08:13:48;;;;;;;8.52;2.00;;;;;;;;;;4981355;28;20319;-77
2023/09/20 08:16:13;;;;;;;9.57;1.85;;;;;;;;;;4978559;28;20090;-76
2023/09/20 08:21:29;;;;;;;5.78;2.10;;;;;;;;;;4971517;28;20058;-77
2023/09/20 09:00:27;;;;;;;5.30;1.60;;;;;;;;;;4960855;28;20053;-77
2023/09/20 09:02:57;;;;;;;;;;;;;;;;;;4962202;28;20329;-76
2023/09/20 09:05:25;;;;;;;3.90;1.63;;;;;;;;;;4961225;28;19914;-77
2023/09/20 09:07:51;;;;;;;6.25;1.70;;;;;;;;;;4967568;28;20034;-76
2023/09/20 09:10:18;;;;;;;3.72;1.67;;;;;;;;;;4964515;28;20042;-75
2023/09/20 09:12:44;;;;;;;4.22;1.88;;;;;;;;;;4965048;28;20379;-76
2023/09/20 09:15:11;;;;;;;5.03;1.73;;;;;;;;;;4961078;28;20034;-77
2023/09/20 09:17:40;;;;;;;4.20;1.70;;;;;;;;;;4965779;28;20735;-76
2023/09/20 09:20:10;;;;;;;3.00;1.60;;;;;;;;;;4960612;28;20031;-75
2023/09/20 09:22:39;;;;;;;5.97;1.98;;;;;;;;;;4960667;28;21521;-75
2023/09/20 09:25:40;;;;;;;7.30;1.70;;;;;;;;;;4960949;28;20022;-75
2023/09/20 09:28:06;;;;;;;5.05;1.55;;;;;;;;;;4957522;28;20137;-74
2023/09/20 09:30:33;;;;;;;4.00;1.85;;;;;;;;;;4959854;28;20326;-74
2023/09/20 09:32:59;;;;;;;5.53;1.60;;;;;;;;;;4961707;28;20345;-75
2023/09/20 09:35:24;;;;;;;5.00;1.63;;;;;;;;;;4961585;28;20019;-75
2023/09/20 09:37:50;;;;;;;3.67;1.65;;;;;;;;;;4963316;28;20091;-73
2023/09/20 09:40:18;;;;;;;5.57;1.70;;;;;;;;;;4963450;28;20227;-77
2023/09/20 09:42:44;;;;;;;4.03;1.70;;;;;;;;;;4973554;28;20034;-76
2023/09/20 09:45:10;;;;;;;4.60;1.73;;;;;;;;;;4962413;28;20038;-75
2023/09/20 09:47:39;;;;;;;5.07;1.80;;;;;;;;;;4963910;28;20055;-77
2023/09/20 09:50:08;;;;;;;3.53;1.55;;;;;;;;;;4976804;28;20290;-74
2023/09/20 09:52:38;;;;;;;4.97;1.60;;;;;;;;;;4964374;28;20031;-77
2023/09/20 09:55:05;;;;;;;3.83;1.60;;;;;;;;;;4968502;28;20524;-74
2023/09/20 09:57:30;;;;;;;3.28;1.55;;;;;;;;;;4962098;28;20026;-74
2023/09/20 09:59:56;;;;;;;3.67;1.40;;;;;;;;;;4975857;28;20031;-77
2023/09/20 10:02:25;;;;;;;3.30;1.40;;;;;;;;;;4965473;28;20054;-76
2023/09/20 10:04:58;;;;;;;5.00;1.80;;;;;;;;;;4968933;28;20423;-76
2023/09/20 10:07:31;;;;;;;4.25;1.48;;;;;;;;;;4970654;28;20023;-77
2023/09/20 10:10:13;;;;;;;5.88;1.70;;;;;;;;;;4970575;28;20101;-74
2023/09/20 10:12:39;;;;;;;3.63;1.45;;;;;;;;;;4969994;28;20527;-73
2023/09/20 10:15:07;;;;;;;2.88;1.63;;;;;;;;;;4957637;28;20057;-75
2023/09/20 10:17:34;;;;;;;4.18;1.48;;;;;;;;;;4966540;28;20042;-75
2023/09/20 10:20:07;;;;;;;4.82;1.73;;;;;;;;;;4959813;28;20034;-76
2023/09/20 10:22:45;;;;;;;5.00;1.80;;;;;;;;;;4966120;28;20062;-77
2023/09/20 10:25:36;;;;;;;3.97;1.80;;;;;;;;;;4966459;28;20097;-77
2023/09/20 10:28:08;;;;;;;3.53;1.50;;;;;;;;;;4964460;28;20038;-76
2023/09/20 10:31:04;;;;;;;4.75;1.65;;;;;;;;;;4951643;28;20082;-78
2023/09/20 10:33:48;;;;;;;3.90;1.77;;;;;;;;;;4950625;28;20031;-77
2023/09/20 10:36:29;;;;;;;4.20;1.70;;;;;;;;;;4966947;28;20038;-74
2023/09/20 10:39:17;;;;;;;6.38;1.60;;;;;;;;;;4971949;28;20030;-73
2023/09/20 10:41:43;;;;;;;2.92;1.52;;;;;;;;;;4966799;28;20415;-77
2023/09/20 10:44:29;;;;;;;3.88;1.55;;;;;;;;;;4973467;28;20071;-76
2023/09/20 10:46:58;;;;;;;3.00;1.80;;;;;;;;;;4973658;28;20131;-77
2023/09/20 10:49:48;;;;;;;4.88;2.00;;;;;;;;;;4973341;28;20081;-77
2023/09/20 10:52:32;;;;;;;5.28;1.75;;;;;;;;;;4973199;28;20030;-77
2023/09/20 10:55:20;;;;;;;3.45;1.50;;;;;;;;;;4973466;28;20503;-75
2023/09/20 10:57:46;;;;;;;4.32;1.58;;;;;;;;;;4971316;28;20023;-75
2023/09/20 11:00:14;;;;;;;4.13;1.70;;;;;;;;;;4963107;28;20027;-75
2023/09/20 11:02:40;;;;;;;6.15;1.70;;;;;;;;;;4973126;28;20554;-77
2023/09/20 11:05:06;;;;;;;3.25;1.70;;;;;;;;;;4973421;28;20035;-76
2023/09/20 11:07:32;;;;;;;3.95;1.75;;;;;;;;;;4973040;28;20038;-77
2023/09/20 11:09:58;;;;;;;4.97;1.80;;;;;;;;;;4973060;28;20479;-75
2023/09/20 11:12:24;;;;;;;3.85;1.80;;;;;;;;;;4972531;28;20027;-76
2023/09/20 11:14:50;;;;;;;4.55;1.80;;;;;;;;;;4973039;28;20038;-76
2023/09/20 11:17:19;;;;;;;6.00;1.67;;;;;;;;;;4972927;28;20011;-75
2023/09/20 11:19:45;;;;;;;5.20;1.90;;;;;;;;;;4972443;28;20472;-76
2023/09/20 11:22:13;;;;;;;6.00;1.98;;;;;;;;;;4972624;28;20026;-77
2023/09/20 11:24:41;;;;;;;4.07;1.98;;;;;;;;;;4971866;28;20027;-78
2023/09/20 11:27:06;;;;;;;6.18;1.67;;;;;;;;;;4968780;28;20039;-78
2023/09/20 11:29:36;;;;;;;3.50;1.60;;;;;;;;;;4959721;28;20211;-77
2023/09/20 11:32:01;;;;;;;3.33;1.50;;;;;;;;;;4965814;28;20023;-77
2023/09/20 11:34:44;;;;;;;5.72;1.60;;;;;;;;;;4961626;28;20102;-78
2023/09/20 11:37:09;;;;;;;4.50;1.60;;;;;;;;;;4954238;28;20480;-77
2023/09/20 11:39:35;;;;;;;5.72;1.65;;;;;;;;;;4968447;28;20037;-78
2023/09/20 11:42:03;;;;;;;3.58;1.52;;;;;;;;;;4958914;28;20033;-78
2023/09/20 11:44:34;;;;;;;3.40;1.70;;;;;;;;;;4966621;28;20511;-79
2023/09/20 11:47:00;;;;;;;4.03;1.70;;;;;;;;;;4966275;28;20315;-78
2023/09/20 11:49:27;;;;;;;5.85;1.65;;;;;;;;;;4960289;28;20041;-79
2023/09/20 11:51:57;;;;;;;5.45;1.77;;;;;;;;;;4964213;28;20034;-78
2023/09/20 11:54:29;;;;;;;4.13;1.60;;;;;;;;;;4961829;28;20027;-76
2023/09/20 11:56:59;;;;;;;4.93;1.63;;;;;;;;;;4968016;28;20434;-78
2023/09/20 11:59:24;;;;;;;5.53;2.03;;;;;;;;;;4959935;28;20243;-79
2023/09/20 12:01:50;;;;;;;4.43;1.60;;;;;;;;;;4964384;28;20027;-74
2023/09/20 12:04:16;;;;;;;7.28;1.88;;;;;;;;;;4969647;28;20086;-76
2023/09/20 12:06:41;;;;;;;5.40;1.70;;;;;;;;;;4964907;28;20046;-75
2023/09/20 12:09:07;;;;;;;4.65;1.70;;;;;;;;;;4964736;28;20023;-74
2023/09/20 12:11:32;;;;;;;4.72;2.45;;;;;;;;;;4959301;28;21707;-75
2023/09/20 12:13:57;;;;;;;4.78;2.00;;;;;;;;;;4963994;28;20031;-74
2023/09/20 12:16:23;;;;;;;5.20;1.85;;;;;;;;;;4963987;28;20082;-75
2023/09/20 12:18:50;;;;;;;3.80;1.73;;;;;;;;;;4961370;28;20037;-75
2023/09/20 12:21:16;;;;;;;4.50;1.80;;;;;;;;;;4969917;28;20617;-75
2023/09/20 12:23:41;;;;;;;4.13;1.80;;;;;;;;;;4971223;28;20031;-74
2023/09/20 12:26:12;;;;;;;3.47;1.80;;;;;;;;;;4971868;28;20123;-75
2023/09/20 12:28:38;;;;;;;6.63;1.95;;;;;;;;;;4971562;28;20027;-75
2023/09/20 12:31:04;;;;;;;3.55;1.70;;;;;;;;;;4963261;28;20098;-74
2023/09/20 12:33:30;;;;;;;3.05;1.70;;;;;;;;;;4963021;28;20503;-75
2023/09/20 12:35:57;;;;;;;4.82;1.80;;;;;;;;;;4971810;28;20034;-74
2023/09/20 12:38:23;;;;;;;6.15;1.90;;;;;;;;;;4971005;28;20026;-75
2023/09/20 12:40:49;;;;;;;5.90;1.90;;;;;;;;;;4971627;28;20022;-76
2023/09/20 12:43:15;;;;;;;3.40;1.70;;;;;;;;;;4970970;28;20047;-76
2023/09/20 12:45:43;;;;;;;3.92;1.67;;;;;;;;;;4971323;28;20038;-77
2023/09/20 12:48:09;;;;;;;7.05;2.33;;;;;;;;;;4971293;28;20042;-75
2023/09/20 12:50:37;;;;;;;7.18;1.90;;;;;;;;;;4971448;28;20026;-75
2023/09/20 12:53:08;;;;;;;4.10;1.63;;;;;;;;;;4970951;28;20027;-74
2023/09/20 12:55:35;;;;;;;4.50;2.05;;;;;;;;;;4971351;28;20076;-75
2023/09/20 12:58:01;;;;;;;5.53;1.80;;;;;;;;;;4969345;28;20179;-74
2023/09/20 13:00:26;;;;;;;3.38;1.70;;;;;;;;;;4965907;28;20034;-76
2023/09/20 13:02:52;;;;;;;4.35;1.90;;;;;;;;;;4951863;28;20031;-75
2023/09/20 13:05:17;;;;;;;4.85;2.10;;;;;;;;;;4968019;28;20022;-74
2023/09/20 13:07:43;;;;;;;5.50;1.90;;;;;;;;;;4970602;28;20026;-75
2023/09/20 13:10:13;;;;;;;3.60;1.80;;;;;;;;;;4970927;28;20084;-74
2023/09/20 13:12:40;;;;;;;3.95;1.75;;;;;;;;;;4970960;28;20043;-75
2023/09/20 13:15:10;;;;;;;4.18;1.67;;;;;;;;;;4971061;28;20022;-76
2023/09/20 13:17:44;;;;;;;4.57;1.80;;;;;;;;;;4970800;28;20494;-75
2023/09/20 13:20:13;;;;;;;4.55;1.80;;;;;;;;;;4970863;28;20029;-74
2023/09/20 13:22:42;;;;;;;4.13;1.52;;;;;;;;;;4970657;28;20027;-74
2023/09/20 13:25:08;;;;;;;4.05;1.90;;;;;;;;;;4971063;28;20019;-73
2023/09/20 13:27:35;;;;;;;6.22;1.60;;;;;;;;;;4970705;28;20034;-75
2023/09/20 13:30:01;;;;;;;5.25;1.90;;;;;;;;;;4968711;28;20031;-75
2023/09/20 13:32:26;;;;;;;5.05;1.90;;;;;;;;;;4961130;28;20041;-75
2023/09/20 13:34:53;;;;;;;3.45;1.80;;;;;;;;;;4970695;28;20093;-76
2023/09/20 13:37:21;;;;;;;6.80;1.75;;;;;;;;;;4969901;28;20029;-74
2023/09/20 13:39:47;;;;;;;7.07;1.98;;;;;;;;;;4969137;28;20035;-75
2023/09/20 13:42:12;;;;;;;4.90;1.90;;;;;;;;;;4970416;28;20383;-75
2023/09/20 13:44:40;;;;;;;7.88;1.90;;;;;;;;;;4970459;28;20049;-75
2023/09/20 13:47:06;;;;;;;4.55;1.75;;;;;;;;;;4969391;28;20381;-76
2023/09/20 13:49:34;;;;;;;3.95;1.85;;;;;;;;;;4970134;28;20054;-76
2023/09/20 13:52:03;;;;;;;4.93;2.13;;;;;;;;;;4970143;28;20098;-76
2023/09/20 13:54:29;;;;;;;4.25;1.70;;;;;;;;;;4969720;28;20625;-76
2023/09/20 13:56:54;;;;;;;6.15;1.80;;;;;;;;;;4969921;28;20031;-76
2023/09/20 13:59:20;;;;;;;5.03;1.85;;;;;;;;;;4970547;28;20023;-75
2023/09/20 14:01:45;;;;;;;5.13;1.80;;;;;;;;;;4956226;28;20077;-77
2023/09/20 14:04:11;;;;;;;3.95;1.70;;;;;;;;;;4958312;28;20015;-76
2023/09/20 14:06:37;;;;;;;5.18;1.90;;;;;;;;;;4970078;28;20039;-75
2023/09/20 14:09:02;;;;;;;4.38;1.60;;;;;;;;;;4970053;28;20381;-75
2023/09/20 14:11:27;;;;;;;7.45;2.17;;;;;;;;;;4970605;28;20047;-74
2023/09/20 14:13:53;;;;;;;4.32;1.73;;;;;;;;;;4974265;28;20387;-77
2023/09/20 14:16:18;;;;;;;4.90;1.80;;;;;;;;;;4974251;28;20027;-76
2023/09/20 14:18:44;;;;;;;6.07;1.90;;;;;;;;;;4974288;28;20023;-74
2023/09/20 14:21:10;;;;;;;5.97;1.70;;;;;;;;;;4973991;28;20163;-75
2023/09/20 14:23:37;;;;;;;3.30;1.70;;;;;;;;;;4973403;28;20113;-76
2023/09/20 14:26:02;;;;;;;4.70;1.90;;;;;;;;;;4973521;28;20033;-76
2023/09/20 14:28:28;;;;;;;4.68;1.85;;;;;;;;;;4974112;28;20038;-75
2023/09/20 14:30:53;;;;;;;5.25;2.03;;;;;;;;;;4967664;28;20054;-74
2023/09/20 14:33:21;;;;;;;5.53;1.83;;;;;;;;;;4968293;28;20391;-75
2023/09/20 14:35:46;;;;;;;3.47;1.80;;;;;;;;;;4973530;28;20033;-76
2023/09/20 14:38:12;;;;;;;4.72;2.00;;;;;;;;;;4973323;28;20010;-76
2023/09/20 14:40:38;;;;;;;7.13;1.90;;;;;;;;;;4973442;28;20135;-77
2023/09/20 14:43:03;;;;;;;5.63;1.80;;;;;;;;;;4973409;28;20715;-76
2023/09/20 14:45:29;;;;;;;5.07;1.90;;;;;;;;;;4973455;28;20459;-73
2023/09/20 14:47:57;;;;;;;5.80;1.80;;;;;;;;;;4973641;28;20035;-76
2023/09/20 14:50:23;;;;;;;5.18;1.80;;;;;;;;;;4973479;28;20022;-75
2023/09/20 14:52:49;;;;;;;3.80;1.83;;;;;;;;;;4973052;28;20071;-78
2023/09/20 14:55:18;;;;;;;5.18;1.80;;;;;;;;;;4973131;28;20065;-76
2023/09/20 14:57:46;;;;;;;5.45;2.03;;;;;;;;;;4973271;28;20054;-76
2023/09/20 15:00:17;;;;;;;4.75;1.90;;;;;;;;;;4971013;28;20031;-76
2023/09/20 15:02:47;;;;;;;5.53;2.13;;;;;;;;;;4965506;28;20073;-75
2023/09/20 15:05:18;;;;;;;4.90;2.00;;;;;;;;;;4977155;28;20022;-77
2023/09/20 15:07:48;;;;;;;4.22;2.00;;;;;;;;;;4981170;28;20061;-78
2023/09/20 15:10:16;;;;;;;3.42;1.80;;;;;;;;;;4984361;28;20030;-78
2023/09/20 15:12:45;;;;;;;4.80;1.73;;;;;;;;;;4983932;28;20258;-77
2023/09/20 15:15:13;;;;;;;5.78;1.90;;;;;;;;;;4984014;28;20362;-77
2023/09/20 15:17:39;;;;;;;3.75;1.90;;;;;;;;;;4967924;28;20042;-78
2023/09/20 15:20:06;;;;;;;4.22;1.67;;;;;;;;;;4970398;28;20090;-75
2023/09/20 15:22:32;;;;;;;3.55;1.92;;;;;;;;;;4972282;28;20062;-76
2023/09/20 15:24:58;;;;;;;6.07;1.90;;;;;;;;;;4965873;28;20454;-74